• Join FlightAware (Why Join?)
  • Login
  • US Flag 
02:15AM EDT


 

Airport Tracker/Info


-or-


 

Live Flight TrackerFlight Track Log ✈ ASH3795 ✈ 17-Jun-2013 ✈ KIAD - KCLT

Flight Track Log - Related Links

Times and Time Zones

All times are in EDT time to prevent confusion due to time zone crossing. See the ASH3795 flight status page for this flight to view local times or setup timezone preferences in your user account.

Time Position Orientation Groundspeed Altitude Reporting Facility
EDT Latitude Longitude Course Direction KTS MPH feet Rate Location/Type
08:21AM 38.8667 -77.4333 218° Southwest 213 245 3,400  Level Potomac TRACON
08:22AM 38.8167 -77.4333 180° South 230 265 5,600 2,400 Climbing Potomac TRACON
08:23AM 38.7333 -77.4333 180° South 275 316 8,300 2,460 Climbing Potomac TRACON
08:24AM 38.6500 -77.4333 180° South 289 333 10,600 1,800 Climbing Potomac TRACON
08:25AM 38.6219 -77.4383 188° South 292 336 11,000 1,560 Climbing Washington Center
08:26AM 38.5428 -77.4419 182° South 308 354 12,900 1,680 Climbing Washington Center
08:27AM 38.3704 -77.5963 218° Southwest  Level FlightAware Approximate
08:27AM 38.4572 -77.4397 179° South 308 354 14,500  Level Washington Center
08:28AM 38.3994 -77.5258 229° Southwest 299 344 16,300 1,680 Climbing Washington Center
08:29AM 38.3622 -77.6358 247° West 299 344 17,900 1,620 Climbing Washington Center
08:30AM 38.2939 -77.7292 227° Southwest 342 394 19,600 1,560 Climbing Washington Center
08:31AM 38.2294 -77.8306 231° Southwest 361 415 21,000 660 Climbing Washington Center
08:32AM 38.1608 -77.9342 230° Southwest 383 441 21,000 660 Level Washington Center
08:33AM 38.0900 -78.0400 230° Southwest 388 447 22,400 1,380 Climbing Washington Center
08:34AM 38.0144 -78.1536 230° Southwest 394 453 23,800 1,380 Climbing Washington Center
08:35AM 37.9433 -78.2617 230° Southwest 394 453 25,200 1,140 Climbing Washington Center
08:36AM 37.8681 -78.3669 228° Southwest 400 460 26,100 1,020 Climbing Washington Center
08:37AM 37.7989 -78.4669 229° Southwest 405 466 27,200 900 Climbing Washington Center
08:38AM 37.7231 -78.5769 229° Southwest 416 479 28,000 360 Climbing Washington Center
08:39AM 37.6453 -78.6892 229° Southwest 426 490 28,000  Level Washington Center
08:40AM 37.5653 -78.7986 227° Southwest 426 490 28,000  Level Washington Center
08:41AM 37.4806 -78.9181 228° Southwest 426 490 28,000  Level Washington Center
08:42AM 37.4025 -79.0272 228° Southwest 426 490 28,000  Level Washington Center
08:43AM 37.3242 -79.1358 228° Southwest 426 490 28,000  Level Washington Center
08:44AM 37.2417 -79.2442 226° Southwest 426 490 28,000  Level Washington Center
08:45AM 37.1431 -79.3308 215° Southwest 426 490 28,000  Level Washington Center
08:46AM 37.0403 -79.4117 212° Southwest 431 496 28,000  Level Washington Center
08:47AM 36.9503 -79.4878 214° Southwest 438 504 28,000  Level Washington Center
08:48AM 36.8494 -79.5708 213° Southwest 443 510 28,000  Level Washington Center
08:49AM 36.7442 -79.6564 213° Southwest 448 516 28,000  Level Washington Center
08:50AM 36.6306 -79.7486 213° Southwest 448 516 28,000  Level Washington Center
08:51AM 36.5203 -79.8358 212° Southwest 439 505 28,000 -1,440 Level Atlanta Center
08:52AM 36.4331 -79.9075 213° Southwest 434 499 25,100 -3,000 Descending Atlanta Center
08:53AM 36.3314 -79.9900 213° Southwest 434 499 22,100 -1,560 Descending Atlanta Center
08:54AM 36.2422 -80.0639 214° Southwest 414 476 22,000 -60 Descending Atlanta Center
08:55AM 36.1386 -80.1539 215° Southwest 409 471 22,000 -1,140 Level Atlanta Center
08:56AM 36.0453 -80.2328 214° Southwest 409 471 19,800 -2,580 Descending Atlanta Center
08:56AM 35.9803 -80.2950 218° Southwest 404 465 17,700 -2,940 Descending Atlanta Center
08:57AM 35.9558 -80.3089 205° Southwest 409 471 16,900 -2,940 Descending Atlanta Center
08:57AM 35.9092 -80.3572 220° Southwest 392 451 15,100 -2,820 Descending Atlanta Center
08:58AM 35.8764 -80.3792 208° Southwest 403 464 14,100 -2,460 Descending Atlanta Center
08:58AM 35.8361 -80.4219 221° Southwest 378 435 13,100 -1,140 Descending Atlanta Center
08:59AM 35.7972 -80.4467 207° Southwest 374 430 13,000 -420 Descending Atlanta Center
08:59AM 35.7625 -80.4764 215° Southwest 279 321 12,700 -1,440 Descending Atlanta Center
09:00AM 35.7253 -80.4908 197° South 311 358 11,600 -2,040 Descending Atlanta Center
09:00AM 35.6783 -80.5211 208° Southwest 279 321 10,500 -1,620 Descending Atlanta Center
09:01AM 35.6475 -80.5350 200° South 291 335 10,000 -1,320 Descending Atlanta Center
09:01AM 35.6228 -80.5539 212° Southwest 269 310 9,300 -1,500 Descending Atlanta Center
09:02AM 35.5817 -80.5711 199° South 272 313 8,500 -1,620 Descending Atlanta Center
09:02AM 35.5531 -80.5928 212° Southwest 252 290 7,700 -1,500 Descending Atlanta Center
09:03AM 35.5158 -80.6094 200° South 264 304 7,000 -1,440 Descending Atlanta Center
09:03AM 35.4850 -80.6261 204° Southwest 259 298 6,300 -1,020 Descending Atlanta Center
09:04AM 35.4503 -80.6456 205° Southwest 264 304 6,000 -300 Descending Atlanta Center
09:04AM 35.4175 -80.6672 208° Southwest 258 297 6,000  Level Atlanta Center
09:05AM 35.3931 -80.6961 224° Southwest 254 292 6,000 -780 Level Atlanta Center
09:05AM 35.3731 -80.7275 232° Southwest 249 287 5,300 -1,500 Descending Atlanta Center
09:06AM 35.3489 -80.7542 222° Southwest 249 287 4,500 -1,440 Descending Atlanta Center
09:06AM 35.3347 -80.7775 233° Southwest 224 258 4,000 -1,140 Descending Atlanta Center
09:07AM 35.2986 -80.8297 230° Southwest 192 221 2,900 -1,020 Descending Atlanta Center
09:08AM 35.2622 -80.8769 227° Southwest 183 211 2,000 -840 Descending Atlanta Center
09:09AM 35.2342 -80.9164 229° Southwest 125 144 1,200 -720 Descending Atlanta Center
09:11AM 35.2137 -80.9491 176° South  Level Estimated
09:18AM 35.2137 -80.9491 North  Level Estimated